CHH4526 ZGGG-ZJSY
Flight info
| Callsign | CHH4526 |
|---|---|
| Flight time | 1h 9m |
| Altitude | 25600 |
| Route | ZGGG/01R VIBOS R473 ZUH R200 BIGRO G221 WL DCT ZJSY/08 |
| Aircraft | B738/M-SDE3FGILRWXY/LB2 |
Departure
| Time | 2026-05-06 15:14 |
|---|---|
| Airport | Guangzhou Baiyun International Airport (ZGGG) |
Arrival
| Time | 2026-05-06 16:23 |
|---|---|
| Airport | Sanya Phoenix International Airport (ZJSY) |
| Time | Latitude | Longitude | Altitude | Speed | Heading |
|---|---|---|---|---|---|
| 2026-05-06 14:44 | 23.39315 | 113.29343 | 53 ft | 0 kts | 26° |
| 2026-05-06 14:59 | 23.39311 | 113.29341 | 57 ft | 1 kts | 26° |
| 2026-05-06 15:00 | 23.39305 | 113.29338 | 55 ft | 1 kts | 26° |
| 2026-05-06 15:00 | 23.39299 | 113.29335 | 57 ft | 1 kts | 26° |
| 2026-05-06 15:00 | 23.39293 | 113.29331 | 51 ft | 1 kts | 26° |
| 2026-05-06 15:00 | 23.39283 | 113.29326 | 51 ft | 2 kts | 26° |
| 2026-05-06 15:01 | 23.39267 | 113.29318 | 53 ft | 3 kts | 13° |
| 2026-05-06 15:01 | 23.39250 | 113.29319 | 49 ft | 3 kts | 310° |
| 2026-05-06 15:01 | 23.39247 | 113.29323 | 49 ft | 0 kts | 289° |
| 2026-05-06 15:07 | 23.39251 | 113.29305 | 53 ft | 8 kts | 282° |
| 2026-05-06 15:07 | 23.39269 | 113.29225 | 54 ft | 14 kts | 284° |
| 2026-05-06 15:08 | 23.39299 | 113.29093 | 56 ft | 18 kts | 284° |
| 2026-05-06 15:08 | 23.39311 | 113.29000 | 55 ft | 12 kts | 253° |
| 2026-05-06 15:08 | 23.39235 | 113.28962 | 52 ft | 13 kts | 193° |
| 2026-05-06 15:08 | 23.39137 | 113.28936 | 51 ft | 16 kts | 194° |
| 2026-05-06 15:09 | 23.39023 | 113.28905 | 54 ft | 18 kts | 194° |
| 2026-05-06 15:09 | 23.38893 | 113.28870 | 54 ft | 20 kts | 194° |
| 2026-05-06 15:09 | 23.38748 | 113.28830 | 51 ft | 23 kts | 194° |
| 2026-05-06 15:09 | 23.38589 | 113.28788 | 52 ft | 25 kts | 193° |
| 2026-05-06 15:10 | 23.38433 | 113.28745 | 57 ft | 22 kts | 194° |
| 2026-05-06 15:10 | 23.38280 | 113.28704 | 54 ft | 24 kts | 194° |
| 2026-05-06 15:10 | 23.38116 | 113.28659 | 52 ft | 25 kts | 193° |
| 2026-05-06 15:10 | 23.37975 | 113.28622 | 53 ft | 12 kts | 194° |
| 2026-05-06 15:11 | 23.37894 | 113.28600 | 51 ft | 12 kts | 195° |
| 2026-05-06 15:11 | 23.37872 | 113.28522 | 52 ft | 11 kts | 285° |
| 2026-05-06 15:11 | 23.37873 | 113.28517 | 53 ft | 0 kts | 282° |
| 2026-05-06 15:12 | 23.37875 | 113.28507 | 52 ft | 4 kts | 282° |
| 2026-05-06 15:12 | 23.37887 | 113.28456 | 53 ft | 9 kts | 285° |
| 2026-05-06 15:13 | 23.37939 | 113.28416 | 57 ft | 11 kts | 11° |
| 2026-05-06 15:13 | 23.37961 | 113.28423 | 52 ft | 2 kts | 14° |
| 2026-05-06 15:13 | 23.38159 | 113.28477 | 55 ft | 64 kts | 14° |
| 2026-05-06 15:13 | 23.38811 | 113.28652 | 52 ft | 126 kts | 14° |
| 2026-05-06 15:14 | 23.39815 | 113.28933 | 189 ft | 163 kts | 15° |
| 2026-05-06 15:14 | 23.40937 | 113.29222 | 781 ft | 169 kts | 12° |
| 2026-05-06 15:14 | 23.42123 | 113.29423 | 1323 ft | 177 kts | 7° |
| 2026-05-06 15:14 | 23.43374 | 113.29504 | 1882 ft | 187 kts | 1° |
| 2026-05-06 15:15 | 23.44774 | 113.29437 | 2151 ft | 215 kts | 354° |
| 2026-05-06 15:15 | 23.46329 | 113.29156 | 2353 ft | 237 kts | 346° |
| 2026-05-06 15:15 | 23.47959 | 113.28581 | 2616 ft | 253 kts | 337° |
| 2026-05-06 15:15 | 23.49612 | 113.27845 | 3141 ft | 258 kts | 336° |
| 2026-05-06 15:16 | 23.51279 | 113.27108 | 3914 ft | 257 kts | 336° |
| 2026-05-06 15:16 | 23.52936 | 113.26386 | 4752 ft | 256 kts | 336° |
| 2026-05-06 15:16 | 23.54677 | 113.25746 | 5204 ft | 273 kts | 342° |
| 2026-05-06 15:16 | 23.56538 | 113.25187 | 5821 ft | 280 kts | 342° |
| 2026-05-06 15:17 | 23.58419 | 113.24605 | 6586 ft | 281 kts | 337° |
| 2026-05-06 15:17 | 23.60023 | 113.23447 | 7254 ft | 277 kts | 308° |
| 2026-05-06 15:17 | 23.61208 | 113.21826 | 8032 ft | 278 kts | 307° |
| 2026-05-06 15:17 | 23.62479 | 113.20217 | 8759 ft | 282 kts | 308° |
| 2026-05-06 15:18 | 23.63736 | 113.18556 | 9519 ft | 283 kts | 299° |
| 2026-05-06 15:18 | 23.64318 | 113.16542 | 10222 ft | 282 kts | 270° |
| 2026-05-06 15:18 | 23.63988 | 113.14380 | 10461 ft | 303 kts | 247° |
| 2026-05-06 15:18 | 23.62804 | 113.12402 | 10634 ft | 325 kts | 227° |
| 2026-05-06 15:19 | 23.61096 | 113.10658 | 10789 ft | 346 kts | 224° |
| 2026-05-06 15:19 | 23.59221 | 113.08923 | 11019 ft | 362 kts | 215° |
| 2026-05-06 15:19 | 23.56853 | 113.07914 | 11456 ft | 374 kts | 190° |
| 2026-05-06 15:19 | 23.54245 | 113.07820 | 12108 ft | 377 kts | 181° |
| 2026-05-06 15:20 | 23.51605 | 113.07884 | 12657 ft | 382 kts | 181° |
| 2026-05-06 15:20 | 23.48932 | 113.07925 | 13188 ft | 386 kts | 182° |
| 2026-05-06 15:20 | 23.46264 | 113.07950 | 13754 ft | 390 kts | 182° |
| 2026-05-06 15:20 | 23.43535 | 113.07967 | 14277 ft | 393 kts | 182° |
| 2026-05-06 15:21 | 23.40790 | 113.07981 | 14808 ft | 395 kts | 182° |
| 2026-05-06 15:21 | 23.38027 | 113.07995 | 15307 ft | 398 kts | 182° |
| 2026-05-06 15:21 | 23.35242 | 113.08010 | 15798 ft | 402 kts | 182° |
| 2026-05-06 15:21 | 23.32436 | 113.08025 | 16277 ft | 405 kts | 182° |
| 2026-05-06 15:22 | 23.29607 | 113.08041 | 16768 ft | 408 kts | 182° |
| 2026-05-06 15:22 | 23.26756 | 113.08094 | 17217 ft | 412 kts | 178° |
| 2026-05-06 15:22 | 23.23941 | 113.08839 | 17617 ft | 423 kts | 159° |
| 2026-05-06 15:22 | 23.21277 | 113.10226 | 18150 ft | 424 kts | 158° |
| 2026-05-06 15:23 | 23.18571 | 113.11539 | 18562 ft | 426 kts | 160° |
| 2026-05-06 15:23 | 23.15844 | 113.12796 | 19000 ft | 427 kts | 160° |
| 2026-05-06 15:23 | 23.13092 | 113.14043 | 19320 ft | 431 kts | 160° |
| 2026-05-06 15:23 | 23.10307 | 113.15302 | 19641 ft | 435 kts | 160° |
| 2026-05-06 15:24 | 23.07506 | 113.16571 | 19994 ft | 437 kts | 160° |
| 2026-05-06 15:24 | 23.04691 | 113.17849 | 20356 ft | 440 kts | 160° |
| 2026-05-06 15:24 | 23.01874 | 113.19158 | 20695 ft | 443 kts | 158° |
| 2026-05-06 15:24 | 23.00032 | 113.20129 | 20906 ft | 445 kts | 159° |
| 2026-05-06 15:25 | 22.96167 | 113.21598 | 21334 ft | 444 kts | 167° |
| 2026-05-06 15:25 | 22.93166 | 113.22434 | 21656 ft | 445 kts | 172° |
| 2026-05-06 15:25 | 22.90098 | 113.22662 | 21918 ft | 441 kts | 188° |
| 2026-05-06 15:25 | 22.87141 | 113.21899 | 22253 ft | 436 kts | 205° |
| 2026-05-06 15:26 | 22.84540 | 113.20261 | 22593 ft | 432 kts | 219° |
| 2026-05-06 15:26 | 22.82193 | 113.18215 | 22899 ft | 434 kts | 222° |
| 2026-05-06 15:26 | 22.79898 | 113.16074 | 23153 ft | 437 kts | 223° |
| 2026-05-06 15:26 | 22.77610 | 113.13899 | 23411 ft | 439 kts | 223° |
| 2026-05-06 15:27 | 22.76098 | 113.12442 | 23599 ft | 440 kts | 224° |
| 2026-05-06 15:27 | 22.73850 | 113.10188 | 23831 ft | 441 kts | 225° |
| 2026-05-06 15:27 | 22.71614 | 113.07908 | 24089 ft | 442 kts | 225° |
| 2026-05-06 15:27 | 22.68622 | 113.04843 | 24399 ft | 444 kts | 226° |
| 2026-05-06 15:28 | 22.67135 | 113.03317 | 24549 ft | 445 kts | 226° |
| 2026-05-06 15:28 | 22.64891 | 113.01015 | 24952 ft | 441 kts | 226° |
| 2026-05-06 15:28 | 22.62665 | 112.98735 | 25344 ft | 440 kts | 226° |
| 2026-05-06 15:28 | 22.60438 | 112.96455 | 25566 ft | 442 kts | 226° |
| 2026-05-06 15:29 | 22.58193 | 112.94155 | 25557 ft | 447 kts | 226° |
| 2026-05-06 15:29 | 22.55923 | 112.91828 | 25572 ft | 451 kts | 226° |
| 2026-05-06 15:29 | 22.53660 | 112.89506 | 25581 ft | 455 kts | 226° |
| 2026-05-06 15:29 | 22.51355 | 112.87139 | 25576 ft | 459 kts | 226° |
| 2026-05-06 15:30 | 22.49030 | 112.84751 | 25574 ft | 462 kts | 226° |
| 2026-05-06 15:30 | 22.46701 | 112.82359 | 25570 ft | 462 kts | 226° |
| 2026-05-06 15:30 | 22.44370 | 112.79965 | 25570 ft | 462 kts | 226° |
| 2026-05-06 15:30 | 22.42045 | 112.77576 | 25574 ft | 462 kts | 226° |
| 2026-05-06 15:31 | 22.39712 | 112.75180 | 25574 ft | 462 kts | 226° |
| 2026-05-06 15:31 | 22.37384 | 112.72790 | 25562 ft | 462 kts | 226° |
| 2026-05-06 15:31 | 22.35056 | 112.70399 | 25566 ft | 462 kts | 226° |
| 2026-05-06 15:32 | 22.30398 | 112.65618 | 25568 ft | 462 kts | 226° |
| 2026-05-06 15:32 | 22.28069 | 112.63226 | 25570 ft | 462 kts | 226° |
| 2026-05-06 15:32 | 22.25744 | 112.60840 | 25571 ft | 462 kts | 226° |
| 2026-05-06 15:32 | 22.23416 | 112.58451 | 25569 ft | 462 kts | 226° |
| 2026-05-06 15:33 | 22.21083 | 112.56057 | 25577 ft | 462 kts | 226° |
| 2026-05-06 15:33 | 22.18753 | 112.53666 | 25573 ft | 462 kts | 226° |
| 2026-05-06 15:33 | 22.16423 | 112.51276 | 25570 ft | 462 kts | 226° |
| 2026-05-06 15:33 | 22.14095 | 112.48887 | 25572 ft | 462 kts | 226° |
| 2026-05-06 15:34 | 22.11768 | 112.46500 | 25565 ft | 462 kts | 226° |
| 2026-05-06 15:34 | 22.09439 | 112.44112 | 25564 ft | 462 kts | 226° |
| 2026-05-06 15:34 | 22.07113 | 112.41725 | 25568 ft | 462 kts | 226° |
| 2026-05-06 15:34 | 22.04787 | 112.39340 | 25570 ft | 462 kts | 226° |
| 2026-05-06 15:35 | 22.02462 | 112.36956 | 25570 ft | 462 kts | 226° |
| 2026-05-06 15:35 | 22.00133 | 112.34568 | 25567 ft | 462 kts | 226° |
| 2026-05-06 15:35 | 21.97702 | 112.32297 | 25553 ft | 465 kts | 217° |
| 2026-05-06 15:35 | 21.94916 | 112.30595 | 25582 ft | 468 kts | 209° |
| 2026-05-06 15:36 | 21.92012 | 112.29012 | 25569 ft | 467 kts | 212° |
| 2026-05-06 15:36 | 21.89327 | 112.27073 | 25560 ft | 464 kts | 221° |
| 2026-05-06 15:36 | 21.86963 | 112.24726 | 25572 ft | 461 kts | 229° |
| 2026-05-06 15:36 | 21.84845 | 112.22136 | 25567 ft | 460 kts | 232° |
| 2026-05-06 15:37 | 21.82873 | 112.19421 | 25563 ft | 460 kts | 234° |
| 2026-05-06 15:37 | 21.80966 | 112.16659 | 25565 ft | 460 kts | 235° |
| 2026-05-06 15:37 | 21.79071 | 112.13886 | 25567 ft | 460 kts | 235° |
| 2026-05-06 15:37 | 21.77159 | 112.11110 | 25567 ft | 460 kts | 235° |
| 2026-05-06 15:38 | 21.75239 | 112.08355 | 25566 ft | 461 kts | 234° |
| 2026-05-06 15:38 | 21.73304 | 112.05607 | 25564 ft | 461 kts | 234° |
| 2026-05-06 15:38 | 21.71361 | 112.02863 | 25564 ft | 461 kts | 234° |
| 2026-05-06 15:38 | 21.69414 | 112.00123 | 25564 ft | 461 kts | 234° |
| 2026-05-06 15:39 | 21.67466 | 111.97384 | 25562 ft | 461 kts | 234° |
| 2026-05-06 15:39 | 21.65516 | 111.94642 | 25562 ft | 461 kts | 234° |
| 2026-05-06 15:39 | 21.63569 | 111.91903 | 25567 ft | 461 kts | 234° |
| 2026-05-06 15:39 | 21.61649 | 111.89202 | 25572 ft | 461 kts | 234° |
| 2026-05-06 15:40 | 21.59702 | 111.86465 | 25553 ft | 461 kts | 234° |
| 2026-05-06 15:40 | 21.57753 | 111.83727 | 25553 ft | 461 kts | 234° |
| 2026-05-06 15:40 | 21.56488 | 111.81971 | 25557 ft | 461 kts | 233° |
| 2026-05-06 15:41 | 21.55168 | 111.80225 | 25558 ft | 462 kts | 232° |
| 2026-05-06 15:41 | 21.53094 | 111.77593 | 25562 ft | 462 kts | 231° |
| 2026-05-06 15:41 | 21.50988 | 111.74977 | 25565 ft | 462 kts | 231° |
| 2026-05-06 15:41 | 21.48882 | 111.72374 | 25559 ft | 462 kts | 231° |
| 2026-05-06 15:42 | 21.46775 | 111.69762 | 25564 ft | 462 kts | 231° |
| 2026-05-06 15:42 | 21.44683 | 111.67156 | 25561 ft | 462 kts | 231° |
| 2026-05-06 15:42 | 21.42584 | 111.64529 | 25561 ft | 462 kts | 231° |
| 2026-05-06 15:42 | 21.40488 | 111.61901 | 25562 ft | 462 kts | 231° |
| 2026-05-06 15:43 | 21.38399 | 111.59278 | 25554 ft | 462 kts | 231° |
| 2026-05-06 15:43 | 21.36337 | 111.56688 | 25556 ft | 462 kts | 231° |
| 2026-05-06 15:43 | 21.34247 | 111.54064 | 25557 ft | 462 kts | 231° |
| 2026-05-06 15:43 | 21.32159 | 111.51444 | 25554 ft | 462 kts | 231° |
| 2026-05-06 15:44 | 21.30061 | 111.48814 | 25557 ft | 462 kts | 231° |
| 2026-05-06 15:44 | 21.27969 | 111.46193 | 25556 ft | 463 kts | 231° |
| 2026-05-06 15:44 | 21.25879 | 111.43575 | 25561 ft | 463 kts | 231° |
| 2026-05-06 15:44 | 21.23781 | 111.40949 | 25556 ft | 463 kts | 231° |
| 2026-05-06 15:45 | 21.21685 | 111.38327 | 25555 ft | 463 kts | 231° |
| 2026-05-06 15:45 | 21.19588 | 111.35705 | 25554 ft | 463 kts | 231° |
| 2026-05-06 15:45 | 21.17488 | 111.33080 | 25553 ft | 464 kts | 231° |
| 2026-05-06 15:45 | 21.15411 | 111.30486 | 25551 ft | 464 kts | 231° |
| 2026-05-06 15:46 | 21.13313 | 111.27866 | 25554 ft | 464 kts | 231° |
| 2026-05-06 15:46 | 21.11211 | 111.25242 | 25551 ft | 464 kts | 231° |
| 2026-05-06 15:46 | 21.09109 | 111.22620 | 25549 ft | 464 kts | 231° |
| 2026-05-06 15:46 | 21.07008 | 111.19999 | 25549 ft | 464 kts | 231° |
| 2026-05-06 15:47 | 21.04903 | 111.17375 | 25546 ft | 464 kts | 231° |
| 2026-05-06 15:47 | 21.02801 | 111.14756 | 25556 ft | 464 kts | 231° |
| 2026-05-06 15:47 | 21.00696 | 111.12134 | 25548 ft | 464 kts | 231° |
| 2026-05-06 15:47 | 20.98594 | 111.09517 | 25554 ft | 464 kts | 231° |
| 2026-05-06 15:48 | 20.96485 | 111.06894 | 25547 ft | 465 kts | 231° |
| 2026-05-06 15:48 | 20.94379 | 111.04272 | 25548 ft | 465 kts | 231° |
| 2026-05-06 15:48 | 20.92274 | 111.01641 | 25554 ft | 465 kts | 231° |
| 2026-05-06 15:48 | 20.90175 | 110.99009 | 25543 ft | 465 kts | 231° |
| 2026-05-06 15:49 | 20.88075 | 110.96377 | 25548 ft | 465 kts | 231° |
| 2026-05-06 15:49 | 20.85975 | 110.93744 | 25545 ft | 465 kts | 231° |
| 2026-05-06 15:49 | 20.83870 | 110.91108 | 25542 ft | 465 kts | 231° |
| 2026-05-06 15:49 | 20.81769 | 110.88478 | 25543 ft | 465 kts | 231° |
| 2026-05-06 15:50 | 20.79693 | 110.85881 | 25544 ft | 465 kts | 231° |
| 2026-05-06 15:50 | 20.77590 | 110.83253 | 25537 ft | 465 kts | 231° |
| 2026-05-06 15:50 | 20.75489 | 110.80629 | 25536 ft | 465 kts | 231° |
| 2026-05-06 15:50 | 20.73387 | 110.78005 | 25531 ft | 465 kts | 231° |
| 2026-05-06 15:51 | 20.71285 | 110.75382 | 25535 ft | 465 kts | 231° |
| 2026-05-06 15:51 | 20.69181 | 110.72756 | 25538 ft | 465 kts | 231° |
| 2026-05-06 15:51 | 20.67078 | 110.70134 | 25537 ft | 465 kts | 231° |
| 2026-05-06 15:51 | 20.64975 | 110.67513 | 25537 ft | 464 kts | 231° |
| 2026-05-06 15:52 | 20.62873 | 110.64894 | 25536 ft | 464 kts | 231° |
| 2026-05-06 15:52 | 20.60771 | 110.62276 | 25537 ft | 464 kts | 231° |
| 2026-05-06 15:52 | 20.58667 | 110.59658 | 25540 ft | 464 kts | 231° |
| 2026-05-06 15:52 | 20.56567 | 110.57043 | 25539 ft | 464 kts | 231° |
| 2026-05-06 15:53 | 20.54464 | 110.54428 | 25547 ft | 464 kts | 231° |
| 2026-05-06 15:53 | 20.52362 | 110.51816 | 25536 ft | 464 kts | 231° |
| 2026-05-06 15:53 | 20.50156 | 110.49298 | 25528 ft | 466 kts | 224° |
| 2026-05-06 15:53 | 20.47585 | 110.47181 | 25548 ft | 468 kts | 216° |
| 2026-05-06 15:54 | 20.44862 | 110.45275 | 25538 ft | 469 kts | 216° |
| 2026-05-06 15:54 | 20.42149 | 110.43346 | 25537 ft | 469 kts | 216° |
| 2026-05-06 15:54 | 20.39445 | 110.41396 | 25539 ft | 469 kts | 216° |
| 2026-05-06 15:54 | 20.36755 | 110.39437 | 25540 ft | 469 kts | 216° |
| 2026-05-06 15:55 | 20.34073 | 110.37473 | 25539 ft | 469 kts | 216° |
| 2026-05-06 15:55 | 20.31416 | 110.35525 | 25536 ft | 469 kts | 216° |
| 2026-05-06 15:55 | 20.28696 | 110.33530 | 25536 ft | 469 kts | 216° |
| 2026-05-06 15:55 | 20.26044 | 110.31588 | 25537 ft | 469 kts | 216° |
| 2026-05-06 15:56 | 20.23350 | 110.29617 | 25531 ft | 469 kts | 216° |
| 2026-05-06 15:56 | 20.20659 | 110.27649 | 25533 ft | 469 kts | 216° |
| 2026-05-06 15:56 | 20.17968 | 110.25683 | 25529 ft | 469 kts | 216° |
| 2026-05-06 15:56 | 20.15276 | 110.23717 | 25528 ft | 469 kts | 216° |
| 2026-05-06 15:57 | 20.12583 | 110.21751 | 25525 ft | 470 kts | 216° |
| 2026-05-06 15:57 | 20.09892 | 110.19787 | 25529 ft | 470 kts | 216° |
| 2026-05-06 15:57 | 20.07196 | 110.17820 | 25523 ft | 470 kts | 216° |
| 2026-05-06 15:57 | 20.04501 | 110.15855 | 25523 ft | 470 kts | 216° |
| 2026-05-06 15:58 | 20.01798 | 110.13904 | 25526 ft | 470 kts | 214° |
| 2026-05-06 15:58 | 19.98933 | 110.12208 | 25523 ft | 472 kts | 207° |
| 2026-05-06 15:58 | 19.95928 | 110.10791 | 25531 ft | 473 kts | 205° |
| 2026-05-06 15:58 | 19.92905 | 110.09401 | 25519 ft | 473 kts | 205° |
| 2026-05-06 15:59 | 19.89890 | 110.08005 | 25524 ft | 473 kts | 205° |
| 2026-05-06 15:59 | 19.86879 | 110.06589 | 25529 ft | 473 kts | 206° |
| 2026-05-06 15:59 | 19.83878 | 110.05159 | 25529 ft | 473 kts | 206° |
| 2026-05-06 15:59 | 19.80882 | 110.03720 | 25527 ft | 473 kts | 206° |
| 2026-05-06 16:00 | 19.77887 | 110.02275 | 25526 ft | 473 kts | 206° |
| 2026-05-06 16:00 | 19.74890 | 110.00827 | 25527 ft | 473 kts | 206° |
| 2026-05-06 16:00 | 19.71895 | 109.99381 | 25529 ft | 473 kts | 206° |
| 2026-05-06 16:00 | 19.68939 | 109.97955 | 25530 ft | 473 kts | 206° |
| 2026-05-06 16:01 | 19.65905 | 109.96493 | 25532 ft | 473 kts | 206° |
| 2026-05-06 16:01 | 19.62945 | 109.95068 | 25523 ft | 473 kts | 206° |
| 2026-05-06 16:01 | 19.59944 | 109.93624 | 25524 ft | 473 kts | 206° |
| 2026-05-06 16:01 | 19.56948 | 109.92183 | 25522 ft | 473 kts | 206° |
| 2026-05-06 16:02 | 19.53950 | 109.90742 | 25523 ft | 473 kts | 206° |
| 2026-05-06 16:02 | 19.50949 | 109.89300 | 25519 ft | 473 kts | 206° |
| 2026-05-06 16:02 | 19.47951 | 109.87859 | 25519 ft | 473 kts | 206° |
| 2026-05-06 16:02 | 19.44950 | 109.86418 | 25525 ft | 473 kts | 206° |
| 2026-05-06 16:03 | 19.41955 | 109.84980 | 25526 ft | 473 kts | 206° |
| 2026-05-06 16:03 | 19.38957 | 109.83542 | 25490 ft | 473 kts | 206° |
| 2026-05-06 16:03 | 19.35944 | 109.82101 | 24676 ft | 472 kts | 206° |
| 2026-05-06 16:03 | 19.32964 | 109.80689 | 23972 ft | 468 kts | 205° |
| 2026-05-06 16:04 | 19.30002 | 109.79287 | 23225 ft | 464 kts | 205° |
| 2026-05-06 16:04 | 19.27065 | 109.77897 | 22443 ft | 461 kts | 205° |
| 2026-05-06 16:04 | 19.24157 | 109.76519 | 21722 ft | 455 kts | 206° |
| 2026-05-06 16:04 | 19.21281 | 109.75145 | 21024 ft | 451 kts | 206° |
| 2026-05-06 16:05 | 19.18440 | 109.73780 | 20319 ft | 447 kts | 206° |
| 2026-05-06 16:05 | 19.15619 | 109.72422 | 19625 ft | 443 kts | 206° |
| 2026-05-06 16:05 | 19.12862 | 109.71094 | 18944 ft | 440 kts | 206° |
| 2026-05-06 16:05 | 19.10085 | 109.69759 | 18259 ft | 437 kts | 206° |
| 2026-05-06 16:06 | 19.07322 | 109.68431 | 17494 ft | 434 kts | 206° |
| 2026-05-06 16:06 | 19.04591 | 109.67120 | 16795 ft | 429 kts | 205° |
| 2026-05-06 16:06 | 19.01887 | 109.65824 | 16120 ft | 424 kts | 205° |
| 2026-05-06 16:06 | 18.99218 | 109.64544 | 15463 ft | 420 kts | 205° |
| 2026-05-06 16:07 | 18.96567 | 109.63274 | 14808 ft | 416 kts | 205° |
| 2026-05-06 16:07 | 18.93941 | 109.62016 | 14144 ft | 413 kts | 205° |
| 2026-05-06 16:07 | 18.91334 | 109.60767 | 13453 ft | 410 kts | 205° |
| 2026-05-06 16:07 | 18.88744 | 109.59527 | 12761 ft | 406 kts | 205° |
| 2026-05-06 16:08 | 18.86173 | 109.58296 | 12107 ft | 402 kts | 205° |
| 2026-05-06 16:08 | 18.83635 | 109.57082 | 11465 ft | 398 kts | 205° |
| 2026-05-06 16:08 | 18.81135 | 109.55886 | 11107 ft | 388 kts | 205° |
| 2026-05-06 16:08 | 18.78732 | 109.54739 | 10937 ft | 372 kts | 205° |
| 2026-05-06 16:09 | 18.76417 | 109.53630 | 10806 ft | 358 kts | 205° |
| 2026-05-06 16:09 | 18.74214 | 109.52574 | 10665 ft | 346 kts | 205° |
| 2026-05-06 16:09 | 18.72052 | 109.51546 | 10515 ft | 336 kts | 205° |
| 2026-05-06 16:09 | 18.69955 | 109.50545 | 10389 ft | 326 kts | 205° |
| 2026-05-06 16:10 | 18.67919 | 109.49572 | 10245 ft | 317 kts | 205° |
| 2026-05-06 16:10 | 18.65936 | 109.48625 | 10130 ft | 308 kts | 205° |
| 2026-05-06 16:10 | 18.64000 | 109.47701 | 9995 ft | 301 kts | 205° |
| 2026-05-06 16:10 | 18.62118 | 109.46802 | 9957 ft | 291 kts | 205° |
| 2026-05-06 16:11 | 18.60290 | 109.45930 | 9540 ft | 294 kts | 205° |
| 2026-05-06 16:11 | 18.58407 | 109.45033 | 9125 ft | 298 kts | 205° |
| 2026-05-06 16:11 | 18.56581 | 109.43991 | 8751 ft | 298 kts | 220° |
| 2026-05-06 16:11 | 18.55190 | 109.42400 | 8473 ft | 295 kts | 229° |
| 2026-05-06 16:12 | 18.53777 | 109.40831 | 8182 ft | 293 kts | 225° |
| 2026-05-06 16:12 | 18.52345 | 109.39324 | 7830 ft | 286 kts | 225° |
| 2026-05-06 16:12 | 18.50971 | 109.37896 | 7578 ft | 277 kts | 225° |
| 2026-05-06 16:12 | 18.49614 | 109.36485 | 7324 ft | 271 kts | 225° |
| 2026-05-06 16:13 | 18.48276 | 109.35090 | 7086 ft | 270 kts | 225° |
| 2026-05-06 16:13 | 18.46945 | 109.33701 | 6842 ft | 267 kts | 225° |
| 2026-05-06 16:13 | 18.45642 | 109.32339 | 6590 ft | 260 kts | 225° |
| 2026-05-06 16:13 | 18.44372 | 109.31012 | 6357 ft | 253 kts | 225° |
| 2026-05-06 16:14 | 18.43137 | 109.29721 | 6101 ft | 246 kts | 225° |
| 2026-05-06 16:14 | 18.41940 | 109.28469 | 5872 ft | 240 kts | 225° |
| 2026-05-06 16:14 | 18.40767 | 109.27244 | 5657 ft | 234 kts | 225° |
| 2026-05-06 16:14 | 18.39626 | 109.26058 | 5441 ft | 227 kts | 224° |
| 2026-05-06 16:15 | 18.38502 | 109.24919 | 5222 ft | 222 kts | 223° |
| 2026-05-06 16:15 | 18.37406 | 109.23812 | 5052 ft | 214 kts | 223° |
| 2026-05-06 16:15 | 18.36362 | 109.22755 | 4874 ft | 203 kts | 223° |
| 2026-05-06 16:15 | 18.35386 | 109.21767 | 4688 ft | 193 kts | 221° |
| 2026-05-06 16:16 | 18.34435 | 109.20806 | 4509 ft | 187 kts | 221° |
| 2026-05-06 16:16 | 18.33506 | 109.19866 | 4316 ft | 182 kts | 220° |
| 2026-05-06 16:16 | 18.32611 | 109.18961 | 4158 ft | 175 kts | 220° |
| 2026-05-06 16:16 | 18.31726 | 109.18086 | 3985 ft | 176 kts | 215° |
| 2026-05-06 16:17 | 18.31007 | 109.17664 | 3861 ft | 175 kts | 195° |
| 2026-05-06 16:17 | 18.29833 | 109.17563 | 3733 ft | 172 kts | 168° |
| 2026-05-06 16:17 | 18.28749 | 109.18024 | 3582 ft | 168 kts | 143° |
| 2026-05-06 16:17 | 18.27814 | 109.19290 | 3344 ft | 166 kts | 109° |
| 2026-05-06 16:18 | 18.27730 | 109.20095 | 3248 ft | 170 kts | 88° |
| 2026-05-06 16:18 | 18.27826 | 109.21344 | 3096 ft | 172 kts | 90° |
| 2026-05-06 16:18 | 18.27916 | 109.22569 | 2928 ft | 163 kts | 87° |
| 2026-05-06 16:18 | 18.28043 | 109.23735 | 2763 ft | 157 kts | 85° |
| 2026-05-06 16:19 | 18.28179 | 109.24837 | 2745 ft | 151 kts | 86° |
| 2026-05-06 16:19 | 18.28316 | 109.25927 | 2576 ft | 145 kts | 85° |
| 2026-05-06 16:19 | 18.28450 | 109.26967 | 2397 ft | 140 kts | 84° |
| 2026-05-06 16:19 | 18.28581 | 109.27997 | 2216 ft | 142 kts | 84° |
| 2026-05-06 16:20 | 18.28710 | 109.28987 | 2037 ft | 135 kts | 84° |
| 2026-05-06 16:20 | 18.28837 | 109.29976 | 1853 ft | 137 kts | 85° |
| 2026-05-06 16:20 | 18.28963 | 109.30956 | 1694 ft | 133 kts | 84° |
| 2026-05-06 16:20 | 18.29089 | 109.31923 | 1518 ft | 133 kts | 84° |
| 2026-05-06 16:21 | 18.29212 | 109.32877 | 1353 ft | 134 kts | 84° |
| 2026-05-06 16:21 | 18.29336 | 109.33843 | 1179 ft | 135 kts | 83° |
| 2026-05-06 16:21 | 18.29469 | 109.34809 | 986 ft | 134 kts | 83° |
| 2026-05-06 16:21 | 18.29588 | 109.35770 | 862 ft | 129 kts | 84° |
| 2026-05-06 16:22 | 18.29714 | 109.36712 | 691 ft | 132 kts | 83° |
| 2026-05-06 16:22 | 18.29837 | 109.37681 | 515 ft | 134 kts | 83° |
| 2026-05-06 16:22 | 18.29966 | 109.38668 | 350 ft | 136 kts | 82° |
| 2026-05-06 16:22 | 18.30087 | 109.39665 | 124 ft | 136 kts | 83° |
| 2026-05-06 16:23 | 18.30208 | 109.40582 | 77 ft | 104 kts | 83° |
| 2026-05-06 16:23 | 18.30276 | 109.41115 | 85 ft | 50 kts | 82° |
| 2026-05-06 16:23 | 18.30319 | 109.41306 | 89 ft | 15 kts | 45° |
| 2026-05-06 16:23 | 18.30365 | 109.41316 | 88 ft | 0 kts | 352° |
| 2026-05-06 16:24 | 18.30369 | 109.41315 | 87 ft | 1 kts | 352° |
| 2026-05-06 16:24 | 18.30390 | 109.41312 | 87 ft | 5 kts | 352° |
| 2026-05-06 16:24 | 18.30435 | 109.41305 | 87 ft | 8 kts | 350° |
| 2026-05-06 16:25 | 18.30469 | 109.41247 | 84 ft | 13 kts | 268° |
| 2026-05-06 16:25 | 18.30452 | 109.41138 | 83 ft | 18 kts | 262° |
| 2026-05-06 16:25 | 18.30440 | 109.41036 | 84 ft | 10 kts | 264° |
| 2026-05-06 16:25 | 18.30497 | 109.40994 | 85 ft | 13 kts | 353° |
| 2026-05-06 16:26 | 18.30602 | 109.40980 | 83 ft | 17 kts | 352° |
| 2026-05-06 16:26 | 18.30706 | 109.40965 | 86 ft | 14 kts | 349° |
| 2026-05-06 16:26 | 18.30739 | 109.40875 | 83 ft | 16 kts | 261° |
| 2026-05-06 16:26 | 18.30723 | 109.40750 | 81 ft | 19 kts | 263° |
| 2026-05-06 16:27 | 18.30706 | 109.40611 | 79 ft | 20 kts | 262° |
| 2026-05-06 16:27 | 18.30692 | 109.40507 | 69 ft | 6 kts | 262° |
| 2026-05-06 16:27 | 18.30706 | 109.40460 | 75 ft | 7 kts | 337° |
| 2026-05-06 16:27 | 18.30747 | 109.40459 | 72 ft | 6 kts | 353° |
| 2026-05-06 16:28 | 18.30753 | 109.40458 | 73 ft | 0 kts | 352° |